sensor_id;sensor_type;location;lat;lon;timestamp;temperature;humidity
72650;SHT31;61467;50.674;4.618;2022-11-20T00:00:40;5.86;79.65
72650;SHT31;61467;50.674;4.618;2022-11-20T00:03:06;5.79;79.89
72650;SHT31;61467;50.674;4.618;2022-11-20T00:05:33;5.89;79.72
72650;SHT31;61467;50.674;4.618;2022-11-20T00:07:59;5.91;79.30
72650;SHT31;61467;50.674;4.618;2022-11-20T00:10:26;5.72;79.87
72650;SHT31;61467;50.674;4.618;2022-11-20T00:12:53;5.68;80.19
72650;SHT31;61467;50.674;4.618;2022-11-20T00:15:21;5.76;80.52
72650;SHT31;61467;50.674;4.618;2022-11-20T00:17:48;5.81;80.47
72650;SHT31;61467;50.674;4.618;2022-11-20T00:20:14;5.59;80.49
72650;SHT31;61467;50.674;4.618;2022-11-20T00:22:41;5.37;80.85
72650;SHT31;61467;50.674;4.618;2022-11-20T00:25:08;5.54;80.86
72650;SHT31;61467;50.674;4.618;2022-11-20T00:27:35;5.65;80.97
72650;SHT31;61467;50.674;4.618;2022-11-20T00:30:02;5.66;81.03
72650;SHT31;61467;50.674;4.618;2022-11-20T00:32:30;5.55;81.11
72650;SHT31;61467;50.674;4.618;2022-11-20T00:34:57;5.72;80.85
72650;SHT31;61467;50.674;4.618;2022-11-20T00:37:23;5.73;80.84
72650;SHT31;61467;50.674;4.618;2022-11-20T00:39:50;5.78;80.72
72650;SHT31;61467;50.674;4.618;2022-11-20T00:42:17;5.79;80.40
72650;SHT31;61467;50.674;4.618;2022-11-20T00:44:43;5.71;80.58
72650;SHT31;61467;50.674;4.618;2022-11-20T00:47:10;5.65;80.45
72650;SHT31;61467;50.674;4.618;2022-11-20T00:49:38;5.45;81.26
72650;SHT31;61467;50.674;4.618;2022-11-20T00:52:05;5.56;80.91
72650;SHT31;61467;50.674;4.618;2022-11-20T00:54:31;5.71;81.15
72650;SHT31;61467;50.674;4.618;2022-11-20T00:56:58;5.86;81.09
72650;SHT31;61467;50.674;4.618;2022-11-20T00:59:25;5.64;80.97
72650;SHT31;61467;50.674;4.618;2022-11-20T01:01:51;5.85;80.94
72650;SHT31;61467;50.674;4.618;2022-11-20T01:04:18;5.85;80.50
72650;SHT31;61467;50.674;4.618;2022-11-20T01:06:46;5.91;80.69
72650;SHT31;61467;50.674;4.618;2022-11-20T01:09:14;5.88;80.94
72650;SHT31;61467;50.674;4.618;2022-11-20T01:11:42;5.83;80.51
72650;SHT31;61467;50.674;4.618;2022-11-20T01:14:12;5.98;80.59
72650;SHT31;61467;50.674;4.618;2022-11-20T01:16:40;5.92;80.48
72650;SHT31;61467;50.674;4.618;2022-11-20T01:19:10;5.93;80.53
72650;SHT31;61467;50.674;4.618;2022-11-20T01:21:39;5.93;80.45
72650;SHT31;61467;50.674;4.618;2022-11-20T01:24:10;5.93;80.27
72650;SHT31;61467;50.674;4.618;2022-11-20T01:26:38;5.98;80.37
72650;SHT31;61467;50.674;4.618;2022-11-20T01:29:13;6.06;80.29
72650;SHT31;61467;50.674;4.618;2022-11-20T01:31:40;6.01;79.96
72650;SHT31;61467;50.674;4.618;2022-11-20T01:34:10;5.83;79.99
72650;SHT31;61467;50.674;4.618;2022-11-20T01:36:38;5.75;80.68
72650;SHT31;61467;50.674;4.618;2022-11-20T01:39:10;5.78;80.72
72650;SHT31;61467;50.674;4.618;2022-11-20T01:41:38;5.86;80.56
72650;SHT31;61467;50.674;4.618;2022-11-20T01:44:52;5.91;80.55
72650;SHT31;61467;50.674;4.618;2022-11-20T01:47:22;5.72;80.38
72650;SHT31;61467;50.674;4.618;2022-11-20T01:49:53;5.51;81.35
72650;SHT31;61467;50.674;4.618;2022-11-20T01:52:24;5.42;81.81
72650;SHT31;61467;50.674;4.618;2022-11-20T01:54:56;5.64;81.91
72650;SHT31;61467;50.674;4.618;2022-11-20T01:57:24;5.69;81.30
72650;SHT31;61467;50.674;4.618;2022-11-20T01:59:55;5.76;81.38
72650;SHT31;61467;50.674;4.618;2022-11-20T02:02:23;5.89;81.25
72650;SHT31;61467;50.674;4.618;2022-11-20T02:04:51;6.02;81.27
72650;SHT31;61467;50.674;4.618;2022-11-20T02:07:20;6.06;80.88
72650;SHT31;61467;50.674;4.618;2022-11-20T02:09:47;5.98;80.73
72650;SHT31;61467;50.674;4.618;2022-11-20T02:12:15;6.01;80.96
72650;SHT31;61467;50.674;4.618;2022-11-20T02:14:56;6.07;80.96
72650;SHT31;61467;50.674;4.618;2022-11-20T02:17:23;6.07;81.16
72650;SHT31;61467;50.674;4.618;2022-11-20T02:19:50;6.01;80.91
72650;SHT31;61467;50.674;4.618;2022-11-20T02:22:21;6.19;80.78
72650;SHT31;61467;50.674;4.618;2022-11-20T02:24:51;6.12;81.04
72650;SHT31;61467;50.674;4.618;2022-11-20T02:27:18;6.13;81.01
72650;SHT31;61467;50.674;4.618;2022-11-20T02:29:47;6.14;80.66
72650;SHT31;61467;50.674;4.618;2022-11-20T02:32:20;6.13;80.89
72650;SHT31;61467;50.674;4.618;2022-11-20T02:34:46;6.12;80.61
72650;SHT31;61467;50.674;4.618;2022-11-20T02:37:14;6.13;80.58
72650;SHT31;61467;50.674;4.618;2022-11-20T02:39:41;6.22;80.68
72650;SHT31;61467;50.674;4.618;2022-11-20T02:42:09;6.24;80.46
72650;SHT31;61467;50.674;4.618;2022-11-20T02:44:36;6.20;80.64
72650;SHT31;61467;50.674;4.618;2022-11-20T02:47:03;6.19;80.63
72650;SHT31;61467;50.674;4.618;2022-11-20T02:49:29;6.27;80.50
72650;SHT31;61467;50.674;4.618;2022-11-20T02:51:56;6.27;80.52
72650;SHT31;61467;50.674;4.618;2022-11-20T02:54:23;6.22;79.91
72650;SHT31;61467;50.674;4.618;2022-11-20T02:56:50;6.23;80.08
72650;SHT31;61467;50.674;4.618;2022-11-20T02:59:18;6.29;80.51
72650;SHT31;61467;50.674;4.618;2022-11-20T03:01:45;6.09;80.42
72650;SHT31;61467;50.674;4.618;2022-11-20T03:04:12;6.20;80.44
72650;SHT31;61467;50.674;4.618;2022-11-20T03:06:38;6.26;80.08
72650;SHT31;61467;50.674;4.618;2022-11-20T03:09:05;6.03;80.09
72650;SHT31;61467;50.674;4.618;2022-11-20T03:11:32;5.92;80.94
72650;SHT31;61467;50.674;4.618;2022-11-20T03:14:01;6.07;80.97
72650;SHT31;61467;50.674;4.618;2022-11-20T03:16:31;5.99;81.05
72650;SHT31;61467;50.674;4.618;2022-11-20T03:18:57;6.09;80.63
72650;SHT31;61467;50.674;4.618;2022-11-20T03:21:24;6.12;80.39
72650;SHT31;61467;50.674;4.618;2022-11-20T03:23:53;6.12;80.43
72650;SHT31;61467;50.674;4.618;2022-11-20T03:26:22;6.22;80.13
72650;SHT31;61467;50.674;4.618;2022-11-20T03:28:51;6.13;80.40
72650;SHT31;61467;50.674;4.618;2022-11-20T03:31:20;6.19;80.40
72650;SHT31;61467;50.674;4.618;2022-11-20T03:33:49;6.20;79.87
72650;SHT31;61467;50.674;4.618;2022-11-20T03:36:17;5.92;80.24
72650;SHT31;61467;50.674;4.618;2022-11-20T03:38:44;6.09;80.15
72650;SHT31;61467;50.674;4.618;2022-11-20T03:41:12;6.01;80.28
72650;SHT31;61467;50.674;4.618;2022-11-20T03:43:39;5.98;80.37
72650;SHT31;61467;50.674;4.618;2022-11-20T03:46:07;5.73;80.71
72650;SHT31;61467;50.674;4.618;2022-11-20T03:48:33;5.35;81.31
72650;SHT31;61467;50.674;4.618;2022-11-20T03:51:09;5.33;81.69
72650;SHT31;61467;50.674;4.618;2022-11-20T03:53:36;5.34;81.26
72650;SHT31;61467;50.674;4.618;2022-11-20T03:56:04;5.34;81.13
72650;SHT31;61467;50.674;4.618;2022-11-20T03:58:32;5.65;80.79
72650;SHT31;61467;50.674;4.618;2022-11-20T04:01:04;5.54;80.34
72650;SHT31;61467;50.674;4.618;2022-11-20T04:03:31;5.66;80.51
72650;SHT31;61467;50.674;4.618;2022-11-20T04:06:01;5.55;80.10
72650;SHT31;61467;50.674;4.618;2022-11-20T04:08:29;5.52;80.25
72650;SHT31;61467;50.674;4.618;2022-11-20T04:10:56;5.71;80.15
72650;SHT31;61467;50.674;4.618;2022-11-20T04:13:23;5.65;80.08
72650;SHT31;61467;50.674;4.618;2022-11-20T04:15:49;5.78;80.19
72650;SHT31;61467;50.674;4.618;2022-11-20T04:18:16;5.85;79.66
72650;SHT31;61467;50.674;4.618;2022-11-20T04:20:43;5.96;79.47
72650;SHT31;61467;50.674;4.618;2022-11-20T04:23:09;5.83;79.77
72650;SHT31;61467;50.674;4.618;2022-11-20T04:25:37;5.79;79.86
72650;SHT31;61467;50.674;4.618;2022-11-20T04:28:04;5.85;79.91
72650;SHT31;61467;50.674;4.618;2022-11-20T04:30:32;5.91;79.77
72650;SHT31;61467;50.674;4.618;2022-11-20T04:32:58;5.96;79.60
72650;SHT31;61467;50.674;4.618;2022-11-20T04:35:25;5.98;79.65
72650;SHT31;61467;50.674;4.618;2022-11-20T04:37:51;6.13;79.77
72650;SHT31;61467;50.674;4.618;2022-11-20T04:40:18;6.13;79.38
72650;SHT31;61467;50.674;4.618;2022-11-20T04:42:46;6.14;79.16
72650;SHT31;61467;50.674;4.618;2022-11-20T04:45:13;6.16;79.07
72650;SHT31;61467;50.674;4.618;2022-11-20T04:47:40;6.13;79.21
72650;SHT31;61467;50.674;4.618;2022-11-20T04:50:07;6.12;79.32
72650;SHT31;61467;50.674;4.618;2022-11-20T04:52:34;6.10;79.75
72650;SHT31;61467;50.674;4.618;2022-11-20T04:55:00;6.10;79.51
72650;SHT31;61467;50.674;4.618;2022-11-20T04:57:27;6.20;79.74
72650;SHT31;61467;50.674;4.618;2022-11-20T04:59:55;6.17;79.92
72650;SHT31;61467;50.674;4.618;2022-11-20T05:02:22;6.19;79.89
72650;SHT31;61467;50.674;4.618;2022-11-20T05:04:49;6.24;79.86
72650;SHT31;61467;50.674;4.618;2022-11-20T05:07:16;6.27;79.92
72650;SHT31;61467;50.674;4.618;2022-11-20T05:09:43;6.27;79.86
72650;SHT31;61467;50.674;4.618;2022-11-20T05:12:09;6.32;79.93
72650;SHT31;61467;50.674;4.618;2022-11-20T05:14:36;6.32;79.73
72650;SHT31;61467;50.674;4.618;2022-11-20T05:17:04;6.32;79.48
72650;SHT31;61467;50.674;4.618;2022-11-20T05:19:31;6.27;79.84
72650;SHT31;61467;50.674;4.618;2022-11-20T05:21:57;6.34;79.56
72650;SHT31;61467;50.674;4.618;2022-11-20T05:24:24;6.30;79.62
72650;SHT31;61467;50.674;4.618;2022-11-20T05:26:51;6.37;79.59
72650;SHT31;61467;50.674;4.618;2022-11-20T05:29:17;6.32;79.75
72650;SHT31;61467;50.674;4.618;2022-11-20T05:31:44;6.30;80.02
72650;SHT31;61467;50.674;4.618;2022-11-20T05:34:12;6.32;79.96
72650;SHT31;61467;50.674;4.618;2022-11-20T05:36:39;6.37;79.85
72650;SHT31;61467;50.674;4.618;2022-11-20T05:39:05;6.30;79.96
72650;SHT31;61467;50.674;4.618;2022-11-20T05:41:32;6.34;80.12
72650;SHT31;61467;50.674;4.618;2022-11-20T05:43:59;6.40;80.47
72650;SHT31;61467;50.674;4.618;2022-11-20T05:46:26;6.43;79.97
72650;SHT31;61467;50.674;4.618;2022-11-20T05:48:53;6.37;80.19
72650;SHT31;61467;50.674;4.618;2022-11-20T05:51:22;6.41;80.26
72650;SHT31;61467;50.674;4.618;2022-11-20T05:53:48;6.45;80.17
72650;SHT31;61467;50.674;4.618;2022-11-20T05:56:17;6.45;80.32
72650;SHT31;61467;50.674;4.618;2022-11-20T05:58:44;6.37;80.34
72650;SHT31;61467;50.674;4.618;2022-11-20T06:01:12;6.34;80.50
72650;SHT31;61467;50.674;4.618;2022-11-20T06:03:41;6.37;80.66
72650;SHT31;61467;50.674;4.618;2022-11-20T06:06:11;6.19;81.12
72650;SHT31;61467;50.674;4.618;2022-11-20T06:08:40;6.36;81.26
72650;SHT31;61467;50.674;4.618;2022-11-20T06:11:08;6.33;81.02
72650;SHT31;61467;50.674;4.618;2022-11-20T06:13:35;6.47;80.83
72650;SHT31;61467;50.674;4.618;2022-11-20T06:16:02;6.47;80.61
72650;SHT31;61467;50.674;4.618;2022-11-20T06:18:29;6.48;80.72
72650;SHT31;61467;50.674;4.618;2022-11-20T06:21:00;6.48;80.82
72650;SHT31;61467;50.674;4.618;2022-11-20T06:23:28;6.51;80.50
72650;SHT31;61467;50.674;4.618;2022-11-20T06:25:57;6.53;80.42
72650;SHT31;61467;50.674;4.618;2022-11-20T06:28:24;6.51;80.34
72650;SHT31;61467;50.674;4.618;2022-11-20T06:30:50;6.51;80.40
72650;SHT31;61467;50.674;4.618;2022-11-20T06:33:17;6.54;80.37
72650;SHT31;61467;50.674;4.618;2022-11-20T06:35:44;6.54;80.06
72650;SHT31;61467;50.674;4.618;2022-11-20T06:38:10;6.47;80.00
72650;SHT31;61467;50.674;4.618;2022-11-20T06:40:39;6.45;80.18
72650;SHT31;61467;50.674;4.618;2022-11-20T06:43:07;6.34;80.73
72650;SHT31;61467;50.674;4.618;2022-11-20T06:45:34;6.37;80.92
72650;SHT31;61467;50.674;4.618;2022-11-20T06:48:01;6.41;80.89
72650;SHT31;61467;50.674;4.618;2022-11-20T06:50:28;6.51;80.99
72650;SHT31;61467;50.674;4.618;2022-11-20T06:52:54;6.47;80.92
72650;SHT31;61467;50.674;4.618;2022-11-20T06:55:21;6.57;80.79
72650;SHT31;61467;50.674;4.618;2022-11-20T06:57:47;6.60;80.73
72650;SHT31;61467;50.674;4.618;2022-11-20T07:00:16;6.60;80.86
72650;SHT31;61467;50.674;4.618;2022-11-20T07:02:42;6.64;80.86
72650;SHT31;61467;50.674;4.618;2022-11-20T07:05:09;6.64;80.84
72650;SHT31;61467;50.674;4.618;2022-11-20T07:07:36;6.65;81.03
72650;SHT31;61467;50.674;4.618;2022-11-20T07:10:03;6.64;81.07
72650;SHT31;61467;50.674;4.618;2022-11-20T07:12:30;6.68;81.20
72650;SHT31;61467;50.674;4.618;2022-11-20T07:14:56;6.71;80.96
72650;SHT31;61467;50.674;4.618;2022-11-20T07:17:24;6.71;81.50
72650;SHT31;61467;50.674;4.618;2022-11-20T07:19:51;6.74;81.76
72650;SHT31;61467;50.674;4.618;2022-11-20T07:22:18;6.68;81.79
72650;SHT31;61467;50.674;4.618;2022-11-20T07:24:46;6.72;81.64
72650;SHT31;61467;50.674;4.618;2022-11-20T07:27:13;6.67;82.02
72650;SHT31;61467;50.674;4.618;2022-11-20T07:29:40;6.77;82.29
72650;SHT31;61467;50.674;4.618;2022-11-20T07:32:06;6.74;82.39
72650;SHT31;61467;50.674;4.618;2022-11-20T07:34:34;6.75;82.31
72650;SHT31;61467;50.674;4.618;2022-11-20T07:37:01;6.80;82.48
72650;SHT31;61467;50.674;4.618;2022-11-20T07:39:28;6.91;82.49
72650;SHT31;61467;50.674;4.618;2022-11-20T07:41:54;6.92;82.44
72650;SHT31;61467;50.674;4.618;2022-11-20T07:44:21;6.87;82.40
72650;SHT31;61467;50.674;4.618;2022-11-20T07:46:47;6.92;82.84
72650;SHT31;61467;50.674;4.618;2022-11-20T07:49:14;7.02;82.50
72650;SHT31;61467;50.674;4.618;2022-11-20T07:51:42;7.03;82.56
72650;SHT31;61467;50.674;4.618;2022-11-20T07:54:08;7.11;82.57
72650;SHT31;61467;50.674;4.618;2022-11-20T07:56:35;7.08;82.79
72650;SHT31;61467;50.674;4.618;2022-11-20T07:59:03;6.92;83.44
72650;SHT31;61467;50.674;4.618;2022-11-20T08:01:29;7.02;83.02
72650;SHT31;61467;50.674;4.618;2022-11-20T08:03:56;7.15;82.83
72650;SHT31;61467;50.674;4.618;2022-11-20T08:06:23;7.12;82.46
72650;SHT31;61467;50.674;4.618;2022-11-20T08:08:51;7.08;82.98
72650;SHT31;61467;50.674;4.618;2022-11-20T08:11:18;7.06;83.07
72650;SHT31;61467;50.674;4.618;2022-11-20T08:14:02;7.09;83.12
72650;SHT31;61467;50.674;4.618;2022-11-20T08:16:42;7.13;82.99
72650;SHT31;61467;50.674;4.618;2022-11-20T08:19:09;7.22;83.05
72650;SHT31;61467;50.674;4.618;2022-11-20T08:21:36;7.16;83.03
72650;SHT31;61467;50.674;4.618;2022-11-20T08:24:05;7.13;83.29
72650;SHT31;61467;50.674;4.618;2022-11-20T08:26:32;7.27;83.45
72650;SHT31;61467;50.674;4.618;2022-11-20T08:28:59;7.29;83.72
72650;SHT31;61467;50.674;4.618;2022-11-20T08:31:26;7.23;83.86
72650;SHT31;61467;50.674;4.618;2022-11-20T08:33:54;7.25;83.69
72650;SHT31;61467;50.674;4.618;2022-11-20T08:36:21;7.22;84.46
72650;SHT31;61467;50.674;4.618;2022-11-20T08:38:49;7.25;84.27
72650;SHT31;61467;50.674;4.618;2022-11-20T08:41:17;7.43;84.03
72650;SHT31;61467;50.674;4.618;2022-11-20T08:43:52;7.43;84.40
72650;SHT31;61467;50.674;4.618;2022-11-20T08:46:19;7.52;83.95
72650;SHT31;61467;50.674;4.618;2022-11-20T08:48:46;7.56;84.04
72650;SHT31;61467;50.674;4.618;2022-11-20T08:51:13;7.62;83.82
72650;SHT31;61467;50.674;4.618;2022-11-20T08:53:40;7.67;83.90
72650;SHT31;61467;50.674;4.618;2022-11-20T08:56:07;7.69;83.93
72650;SHT31;61467;50.674;4.618;2022-11-20T08:58:36;7.80;83.58
72650;SHT31;61467;50.674;4.618;2022-11-20T09:01:03;7.90;83.73
72650;SHT31;61467;50.674;4.618;2022-11-20T09:03:30;7.90;83.73
72650;SHT31;61467;50.674;4.618;2022-11-20T09:05:57;7.85;83.96
72650;SHT31;61467;50.674;4.618;2022-11-20T09:08:25;7.88;83.65
72650;SHT31;61467;50.674;4.618;2022-11-20T09:10:51;7.94;83.89
72650;SHT31;61467;50.674;4.618;2022-11-20T09:13:18;7.98;83.65
72650;SHT31;61467;50.674;4.618;2022-11-20T09:15:46;8.15;83.41
72650;SHT31;61467;50.674;4.618;2022-11-20T09:18:13;8.12;83.51
72650;SHT31;61467;50.674;4.618;2022-11-20T09:20:40;8.18;83.19
72650;SHT31;61467;50.674;4.618;2022-11-20T09:23:06;8.24;83.22
72650;SHT31;61467;50.674;4.618;2022-11-20T09:25:33;8.12;83.39
72650;SHT31;61467;50.674;4.618;2022-11-20T09:28:00;8.24;83.60
72650;SHT31;61467;50.674;4.618;2022-11-20T09:30:27;8.32;83.17
72650;SHT31;61467;50.674;4.618;2022-11-20T09:32:55;8.38;82.96
72650;SHT31;61467;50.674;4.618;2022-11-20T09:35:21;8.35;83.17
72650;SHT31;61467;50.674;4.618;2022-11-20T09:37:48;8.38;83.55
72650;SHT31;61467;50.674;4.618;2022-11-20T09:40:19;8.48;83.03
72650;SHT31;61467;50.674;4.618;2022-11-20T09:42:51;8.62;82.59
72650;SHT31;61467;50.674;4.618;2022-11-20T09:48:36;8.56;82.11
72650;SHT31;61467;50.674;4.618;2022-11-20T09:51:12;8.59;82.00
72650;SHT31;61467;50.674;4.618;2022-11-20T09:53:46;8.59;81.63
72650;SHT31;61467;50.674;4.618;2022-11-20T09:56:19;8.49;81.58
72650;SHT31;61467;50.674;4.618;2022-11-20T09:58:49;8.55;81.12
72650;SHT31;61467;50.674;4.618;2022-11-20T10:01:18;8.63;81.06
72650;SHT31;61467;50.674;4.618;2022-11-20T10:03:53;8.50;81.99
72650;SHT31;61467;50.674;4.618;2022-11-20T10:06:26;8.60;81.73
72650;SHT31;61467;50.674;4.618;2022-11-20T10:09:00;8.66;81.64
72650;SHT31;61467;50.674;4.618;2022-11-20T10:11:35;8.83;80.61
72650;SHT31;61467;50.674;4.618;2022-11-20T10:14:16;8.86;80.61
72650;SHT31;61467;50.674;4.618;2022-11-20T10:16:52;8.84;80.99
72650;SHT31;61467;50.674;4.618;2022-11-20T10:19:42;8.81;81.11
72650;SHT31;61467;50.674;4.618;2022-11-20T10:22:20;8.91;80.39
72650;SHT31;61467;50.674;4.618;2022-11-20T10:24:56;8.80;81.07
72650;SHT31;61467;50.674;4.618;2022-11-20T10:27:53;8.86;80.64
72650;SHT31;61467;50.674;4.618;2022-11-20T10:30:21;8.97;80.08
72650;SHT31;61467;50.674;4.618;2022-11-20T10:32:53;8.81;80.66
72650;SHT31;61467;50.674;4.618;2022-11-20T10:35:25;8.90;80.38
72650;SHT31;61467;50.674;4.618;2022-11-20T10:37:56;8.87;80.10
72650;SHT31;61467;50.674;4.618;2022-11-20T10:40:29;8.79;80.90
72650;SHT31;61467;50.674;4.618;2022-11-20T10:43:00;8.79;80.82
72650;SHT31;61467;50.674;4.618;2022-11-20T10:45:36;8.94;80.53
72650;SHT31;61467;50.674;4.618;2022-11-20T10:48:11;8.88;80.63
72650;SHT31;61467;50.674;4.618;2022-11-20T10:50:49;8.81;79.93
72650;SHT31;61467;50.674;4.618;2022-11-20T10:53:28;8.76;80.26
72650;SHT31;61467;50.674;4.618;2022-11-20T10:56:03;8.87;79.50
72650;SHT31;61467;50.674;4.618;2022-11-20T10:58:40;8.76;80.42
72650;SHT31;61467;50.674;4.618;2022-11-20T11:01:14;8.99;79.73
72650;SHT31;61467;50.674;4.618;2022-11-20T11:03:43;8.91;79.31
72650;SHT31;61467;50.674;4.618;2022-11-20T11:06:17;9.04;78.85
72650;SHT31;61467;50.674;4.618;2022-11-20T11:08:48;8.91;79.09
72650;SHT31;61467;50.674;4.618;2022-11-20T11:11:21;8.90;78.87
72650;SHT31;61467;50.674;4.618;2022-11-20T11:13:49;9.01;78.69
72650;SHT31;61467;50.674;4.618;2022-11-20T11:16:24;9.10;78.70
72650;SHT31;61467;50.674;4.618;2022-11-20T11:18:51;9.05;78.39
72650;SHT31;61467;50.674;4.618;2022-11-20T11:21:24;9.20;77.72
72650;SHT31;61467;50.674;4.618;2022-11-20T11:24:02;9.01;77.75
72650;SHT31;61467;50.674;4.618;2022-11-20T11:26:29;9.11;77.79
72650;SHT31;61467;50.674;4.618;2022-11-20T11:28:58;9.04;77.29
72650;SHT31;61467;50.674;4.618;2022-11-20T11:31:26;9.01;78.27
72650;SHT31;61467;50.674;4.618;2022-11-20T11:34:04;8.96;78.16
72650;SHT31;61467;50.674;4.618;2022-11-20T11:36:32;9.18;77.47
72650;SHT31;61467;50.674;4.618;2022-11-20T11:39:01;9.03;78.05
72650;SHT31;61467;50.674;4.618;2022-11-20T11:41:30;9.11;77.27
72650;SHT31;61467;50.674;4.618;2022-11-20T11:44:03;8.96;78.17
72650;SHT31;61467;50.674;4.618;2022-11-20T11:46:58;9.05;78.56
72650;SHT31;61467;50.674;4.618;2022-11-20T11:49:25;9.14;78.76
72650;SHT31;61467;50.674;4.618;2022-11-20T11:52:11;9.04;78.59
72650;SHT31;61467;50.674;4.618;2022-11-20T11:54:43;8.87;79.51
72650;SHT31;61467;50.674;4.618;2022-11-20T11:57:15;8.96;78.78
72650;SHT31;61467;50.674;4.618;2022-11-20T11:59:54;9.05;78.90
72650;SHT31;61467;50.674;4.618;2022-11-20T12:02:31;9.00;79.03
72650;SHT31;61467;50.674;4.618;2022-11-20T12:05:05;9.15;78.27
72650;SHT31;61467;50.674;4.618;2022-11-20T12:07:43;9.15;77.55
72650;SHT31;61467;50.674;4.618;2022-11-20T12:10:17;9.18;77.41
72650;SHT31;61467;50.674;4.618;2022-11-20T12:12:49;9.07;78.27
72650;SHT31;61467;50.674;4.618;2022-11-20T12:15:24;9.01;78.27
72650;SHT31;61467;50.674;4.618;2022-11-20T12:17:52;9.05;78.24
72650;SHT31;61467;50.674;4.618;2022-11-20T12:20:19;8.97;78.37
72650;SHT31;61467;50.674;4.618;2022-11-20T12:22:54;9.01;77.53
72650;SHT31;61467;50.674;4.618;2022-11-20T12:25:26;8.96;78.62
72650;SHT31;61467;50.674;4.618;2022-11-20T12:28:09;8.93;78.81
72650;SHT31;61467;50.674;4.618;2022-11-20T12:30:47;9.07;78.35
72650;SHT31;61467;50.674;4.618;2022-11-20T12:33:35;8.99;78.32
72650;SHT31;61467;50.674;4.618;2022-11-20T12:36:09;8.81;79.36
72650;SHT31;61467;50.674;4.618;2022-11-20T12:39:07;8.90;79.33
72650;SHT31;61467;50.674;4.618;2022-11-20T12:41:49;8.99;78.47
72650;SHT31;61467;50.674;4.618;2022-11-20T12:44:52;9.03;78.53
72650;SHT31;61467;50.674;4.618;2022-11-20T12:47:43;8.94;79.36
72650;SHT31;61467;50.674;4.618;2022-11-20T12:50:22;8.99;78.57
72650;SHT31;61467;50.674;4.618;2022-11-20T12:52:53;9.03;79.09
72650;SHT31;61467;50.674;4.618;2022-11-20T12:55:32;8.97;79.17
72650;SHT31;61467;50.674;4.618;2022-11-20T12:58:05;8.74;79.56
72650;SHT31;61467;50.674;4.618;2022-11-20T13:00:38;8.76;79.81
72650;SHT31;61467;50.674;4.618;2022-11-20T13:03:32;8.81;79.91
72650;SHT31;61467;50.674;4.618;2022-11-20T13:06:08;8.88;79.77
72650;SHT31;61467;50.674;4.618;2022-11-20T13:08:39;8.76;80.66
72650;SHT31;61467;50.674;4.618;2022-11-20T13:11:14;8.56;80.40
72650;SHT31;61467;50.674;4.618;2022-11-20T13:13:54;8.76;80.54
72650;SHT31;61467;50.674;4.618;2022-11-20T13:16:30;8.50;81.58
72650;SHT31;61467;50.674;4.618;2022-11-20T13:19:02;8.50;82.66
72650;SHT31;61467;50.674;4.618;2022-11-20T13:21:36;8.69;82.52
72650;SHT31;61467;50.674;4.618;2022-11-20T13:24:04;8.65;83.11
72650;SHT31;61467;50.674;4.618;2022-11-20T13:26:32;8.55;83.61
72650;SHT31;61467;50.674;4.618;2022-11-20T13:29:03;8.41;84.35
72650;SHT31;61467;50.674;4.618;2022-11-20T13:31:35;8.45;84.42
72650;SHT31;61467;50.674;4.618;2022-11-20T13:34:05;8.55;83.77
72650;SHT31;61467;50.674;4.618;2022-11-20T13:36:33;8.46;84.88
72650;SHT31;61467;50.674;4.618;2022-11-20T13:39:02;8.53;84.54
72650;SHT31;61467;50.674;4.618;2022-11-20T13:41:30;8.70;83.48
72650;SHT31;61467;50.674;4.618;2022-11-20T13:44:10;8.65;83.61
72650;SHT31;61467;50.674;4.618;2022-11-20T13:46:40;8.62;83.78
72650;SHT31;61467;50.674;4.618;2022-11-20T13:49:14;8.59;83.70
72650;SHT31;61467;50.674;4.618;2022-11-20T13:51:43;8.55;83.98
72650;SHT31;61467;50.674;4.618;2022-11-20T13:54:47;8.69;83.17
72650;SHT31;61467;50.674;4.618;2022-11-20T13:57:33;8.43;84.35
72650;SHT31;61467;50.674;4.618;2022-11-20T14:00:10;8.62;83.87
72650;SHT31;61467;50.674;4.618;2022-11-20T14:02:38;8.70;83.53
72650;SHT31;61467;50.674;4.618;2022-11-20T14:05:18;8.52;84.56
72650;SHT31;61467;50.674;4.618;2022-11-20T14:07:46;8.56;84.44
72650;SHT31;61467;50.674;4.618;2022-11-20T14:10:20;8.45;85.33
72650;SHT31;61467;50.674;4.618;2022-11-20T14:12:47;8.55;84.09
72650;SHT31;61467;50.674;4.618;2022-11-20T14:15:26;8.57;84.45
72650;SHT31;61467;50.674;4.618;2022-11-20T14:17:53;8.56;84.62
72650;SHT31;61467;50.674;4.618;2022-11-20T14:20:24;8.46;84.93
72650;SHT31;61467;50.674;4.618;2022-11-20T14:22:52;8.70;83.90
72650;SHT31;61467;50.674;4.618;2022-11-20T14:25:23;8.56;84.74
72650;SHT31;61467;50.674;4.618;2022-11-20T14:27:53;8.45;84.77
72650;SHT31;61467;50.674;4.618;2022-11-20T14:30:22;8.52;84.80
72650;SHT31;61467;50.674;4.618;2022-11-20T14:32:53;8.57;84.52
72650;SHT31;61467;50.674;4.618;2022-11-20T14:35:24;8.74;84.19
72650;SHT31;61467;50.674;4.618;2022-11-20T14:37:51;8.65;84.14
72650;SHT31;61467;50.674;4.618;2022-11-20T14:40:23;8.52;84.27
72650;SHT31;61467;50.674;4.618;2022-11-20T14:42:50;8.69;84.24
72650;SHT31;61467;50.674;4.618;2022-11-20T14:45:18;8.43;84.66
72650;SHT31;61467;50.674;4.618;2022-11-20T14:47:45;8.53;84.84
72650;SHT31;61467;50.674;4.618;2022-11-20T14:50:17;8.45;84.56
72650;SHT31;61467;50.674;4.618;2022-11-20T14:52:50;8.48;84.97
72650;SHT31;61467;50.674;4.618;2022-11-20T14:55:25;8.57;84.80
72650;SHT31;61467;50.674;4.618;2022-11-20T14:57:55;8.56;84.58
72650;SHT31;61467;50.674;4.618;2022-11-20T15:00:23;8.56;85.05
72650;SHT31;61467;50.674;4.618;2022-11-20T15:02:51;8.60;84.64
72650;SHT31;61467;50.674;4.618;2022-11-20T15:05:21;8.56;84.59
72650;SHT31;61467;50.674;4.618;2022-11-20T15:07:49;8.70;84.51
72650;SHT31;61467;50.674;4.618;2022-11-20T15:10:22;8.72;84.51
72650;SHT31;61467;50.674;4.618;2022-11-20T15:12:50;8.70;84.43
72650;SHT31;61467;50.674;4.618;2022-11-20T15:15:21;8.42;85.25
72650;SHT31;61467;50.674;4.618;2022-11-20T15:17:50;8.60;84.79
72650;SHT31;61467;50.674;4.618;2022-11-20T15:20:17;8.48;85.43
72650;SHT31;61467;50.674;4.618;2022-11-20T15:22:45;8.24;86.30
72650;SHT31;61467;50.674;4.618;2022-11-20T15:25:13;8.36;85.76
72650;SHT31;61467;50.674;4.618;2022-11-20T15:27:40;8.48;85.40
72650;SHT31;61467;50.674;4.618;2022-11-20T15:30:13;8.46;85.81
72650;SHT31;61467;50.674;4.618;2022-11-20T15:32:40;8.48;85.33
72650;SHT31;61467;50.674;4.618;2022-11-20T15:35:08;8.59;85.44
72650;SHT31;61467;50.674;4.618;2022-11-20T15:37:35;8.52;85.12
72650;SHT31;61467;50.674;4.618;2022-11-20T15:40:04;8.63;84.83
72650;SHT31;61467;50.674;4.618;2022-11-20T15:42:31;8.70;84.13
72650;SHT31;61467;50.674;4.618;2022-11-20T15:44:57;8.63;85.03
72650;SHT31;61467;50.674;4.618;2022-11-20T15:47:26;8.72;84.81
72650;SHT31;61467;50.674;4.618;2022-11-20T15:49:54;8.67;84.69
72650;SHT31;61467;50.674;4.618;2022-11-20T15:52:21;8.48;85.91
72650;SHT31;61467;50.674;4.618;2022-11-20T15:54:47;8.50;85.76
72650;SHT31;61467;50.674;4.618;2022-11-20T15:57:15;8.52;85.81
72650;SHT31;61467;50.674;4.618;2022-11-20T15:59:42;8.48;85.41
72650;SHT31;61467;50.674;4.618;2022-11-20T16:02:10;8.67;84.51
72650;SHT31;61467;50.674;4.618;2022-11-20T16:04:37;8.66;85.11